Tamara — WDJ7733 — position and weather

sailwx.info

Track history (hours):
 
Tides and Currents Weather Stations Pressure Air Temp Water Temp Dewpoint Dewpoint Depression Visibility Wind Speed Wind Dir Waves Ship Positions

Tamara

Owner: Shaken Knot Stirred, Hillsboro, OR. More information available from US FCC via Universal Licensing System and Coast Guard Vessel Documentation Center.

Last reported at 2018-Apr-27 18:51 UTC. Time now 2018-Jun-19 02:43 UTC.
Position N 48°21' W 124°28'.
Warning: this ship's position is 52 days out of date.

Length 29 m.

Type: Pleasure craft. MMSI: 368009610.

Date/timePositionNaut miles runAvg speedWind from/ knotsBaromVisibWave heightAir tempDewpointWater temp
2018-Apr-27 18:51N 48°21' W 124°28'515.8
2018-Apr-27 18:30N 48°23' W 124°35'9814.0
2018-Apr-27 11:29N 46°45' W 124°46'713.9
2018-Apr-27 11:00N 46°38' W 124°46'713.9
2018-Apr-27 10:30N 46°32' W 124°47'714.0
2018-Apr-27 09:59N 46°24' W 124°47'714.3
2018-Apr-27 09:30N 46°17' W 124°47'714.1
2018-Apr-27 09:00N 46°10' W 124°47'713.6
2018-Apr-27 08:29N 46°03' W 124°46'813.5
2018-Apr-27 07:56N 45°56' W 124°45'613.6
2018-Apr-27 07:29N 45°50' W 124°45'44613.0
2018-Apr-25 21:13N 38°27' W 123°36'312.2
2018-Apr-25 20:59N 38°24' W 123°34'612.4
2018-Apr-25 20:30N 38°19' W 123°32'612.4
2018-Apr-25 20:00N 38°13' W 123°29'612.5
2018-Apr-25 19:30N 38°07' W 123°26'20912.4
2018-Apr-25 02:37N 35°09' W 121°10'211.5
2018-Apr-25 02:28N 35°08' W 121°08'611.9
2018-Apr-25 02:00N 35°03' W 121°04'611.6
2018-Apr-25 01:29N 34°58' W 121°00'612.0
2018-Apr-25 00:59N 34°53' W 120°56'612.2
2018-Apr-25 00:30N 34°48' W 120°52'612.2
2018-Apr-25 00:00N 34°43' W 120°48'612.2
2018-Apr-24 23:29N 34°38' W 120°44'612.3
2018-Apr-24 22:58N 34°33' W 120°39'912.0
2018-Apr-24 22:15N 34°28' W 120°31'312.2
2018-Apr-24 22:00N 34°26' W 120°28'612.4
2018-Apr-24 21:30N 34°24' W 120°21'612.5
2018-Apr-24 21:00N 34°22' W 120°13'712.8
2018-Apr-24 20:30N 34°20' W 120°06'912.9
2018-Apr-24 19:49N 34°18' W 119°56'512.8
2018-Apr-24 19:27N 34°17' W 119°50'612.6
2018-Apr-24 18:59N 34°16' W 119°43'712.2
2018-Apr-24 18:23N 34°14' W 119°34'512.1
2018-Apr-24 17:58N 34°13' W 119°29'712.3
2018-Apr-24 17:25N 34°11' W 119°21'512.3
2018-Apr-24 17:00N 34°09' W 119°15'  
Track history (hours):
 
Tides and Currents Weather Stations Pressure Air Temp Water Temp Dewpoint Dewpoint Depression Visibility Wind Speed Wind Dir Waves Ship Positions

Tamara

Owner: Shaken Knot Stirred, Hillsboro, OR. More information available from US FCC via Universal Licensing System and Coast Guard Vessel Documentation Center.

Last reported at 2018-Apr-27 18:51 UTC. Time now 2018-Jun-19 02:43 UTC.
Position N 48°21' W 124°28'.
Warning: this ship's position is 52 days out of date.

Length 29 m.

Type: Pleasure craft. MMSI: 368009610.

Date/timePositionNaut miles runAvg speedWind from/ knotsBaromVisibWave heightAir tempDewpointWater temp
2018-Apr-27 18:51N 48°21' W 124°28'515.8
2018-Apr-27 18:30N 48°23' W 124°35'9814.0
2018-Apr-27 11:29N 46°45' W 124°46'713.9
2018-Apr-27 11:00N 46°38' W 124°46'713.9
2018-Apr-27 10:30N 46°32' W 124°47'714.0
2018-Apr-27 09:59N 46°24' W 124°47'714.3
2018-Apr-27 09:30N 46°17' W 124°47'714.1
2018-Apr-27 09:00N 46°10' W 124°47'713.6
2018-Apr-27 08:29N 46°03' W 124°46'813.5
2018-Apr-27 07:56N 45°56' W 124°45'613.6
2018-Apr-27 07:29N 45°50' W 124°45'44613.0
2018-Apr-25 21:13N 38°27' W 123°36'312.2
2018-Apr-25 20:59N 38°24' W 123°34'612.4
2018-Apr-25 20:30N 38°19' W 123°32'612.4
2018-Apr-25 20:00N 38°13' W 123°29'612.5
2018-Apr-25 19:30N 38°07' W 123°26'20912.4
2018-Apr-25 02:37N 35°09' W 121°10'211.5
2018-Apr-25 02:28N 35°08' W 121°08'611.9
2018-Apr-25 02:00N 35°03' W 121°04'611.6
2018-Apr-25 01:29N 34°58' W 121°00'612.0
2018-Apr-25 00:59N 34°53' W 120°56'612.2
2018-Apr-25 00:30N 34°48' W 120°52'612.2
2018-Apr-25 00:00N 34°43' W 120°48'612.2
2018-Apr-24 23:29N 34°38' W 120°44'612.3
2018-Apr-24 22:58N 34°33' W 120°39'912.0
2018-Apr-24 22:15N 34°28' W 120°31'312.2
2018-Apr-24 22:00N 34°26' W 120°28'612.4
2018-Apr-24 21:30N 34°24' W 120°21'612.5
2018-Apr-24 21:00N 34°22' W 120°13'712.8
2018-Apr-24 20:30N 34°20' W 120°06'912.9
2018-Apr-24 19:49N 34°18' W 119°56'512.8
2018-Apr-24 19:27N 34°17' W 119°50'612.6
2018-Apr-24 18:59N 34°16' W 119°43'712.2
2018-Apr-24 18:23N 34°14' W 119°34'512.1
2018-Apr-24 17:58N 34°13' W 119°29'712.3
2018-Apr-24 17:25N 34°11' W 119°21'512.3
2018-Apr-24 17:00N 34°09' W 119°15'  

Dump ship's entire track history